Time;durP1;ratioP1;P1;durP2;ratioP2;P2;SDS_P1;SDS_P2;PMS_P1;PMS_P2;Temp;Humidity;BMP_temperature;BMP_pressure;BME280_temperature;BME280_humidity;BME280_pressure;Samples;Min_cycle;Max_cycle;Signal;HPM_P1;HPM_P2
2022/09/21 00:01:15;;;;;;;15.98;9.23;;;;;;;-145.01;100.00;64805.59;5058992;28;20051;-53
2022/09/21 00:03:41;;;;;;;18.88;8.30;;;;;;;-145.01;100.00;64805.59;5051841;28;20103;-53
2022/09/21 00:06:08;;;;;;;17.63;7.68;;;;;;;-145.01;100.00;64805.59;5051742;28;20052;-53
2022/09/21 00:08:33;;;;;;;14.02;7.00;;;;;;;-145.01;100.00;64805.59;5051303;28;20032;-52
2022/09/21 00:10:59;;;;;;;26.15;7.88;;;;;;;-145.01;100.00;64805.59;5050604;28;20025;-54
2022/09/21 00:13:25;;;;;;;17.13;7.43;;;;;;;-145.01;100.00;64805.59;5057065;28;20032;-54
2022/09/21 00:15:51;;;;;;;17.13;6.80;;;;;;;-145.01;100.00;64805.59;5057350;28;20028;-53
2022/09/21 00:18:17;;;;;;;24.63;8.05;;;;;;;-145.01;100.00;64805.59;5049303;28;20041;-54
2022/09/21 00:20:43;;;;;;;16.10;7.32;;;;;;;-145.01;100.00;64805.59;5050579;28;20040;-54
2022/09/21 00:23:08;;;;;;;14.60;6.75;;;;;;;-145.01;100.00;64805.59;5050637;28;20068;-54
2022/09/21 00:25:34;;;;;;;15.20;7.38;;;;;;;-145.01;100.00;64805.59;5055008;28;20108;-54
2022/09/21 00:28:00;;;;;;;13.23;7.05;;;;;;;-145.01;100.00;64805.59;5049091;28;20029;-54
2022/09/21 00:30:25;;;;;;;16.92;6.93;;;;;;;-145.01;100.00;64805.59;5051196;28;20028;-54
2022/09/21 00:32:52;;;;;;;16.30;7.97;;;;;;;-145.01;100.00;64805.59;5058307;28;20394;-54
2022/09/21 00:35:17;;;;;;;18.02;6.97;;;;;;;-145.01;100.00;64805.59;5057407;28;20105;-53
2022/09/21 00:37:43;;;;;;;14.57;7.63;;;;;;;-145.01;100.00;64805.59;5053766;28;20108;-54
2022/09/21 00:40:08;;;;;;;20.30;8.43;;;;;;;-145.01;100.00;64805.59;5057121;28;20037;-55
2022/09/21 00:42:34;;;;;;;22.08;7.60;;;;;;;-145.01;100.00;64805.59;5050601;28;20104;-55
2022/09/21 00:44:59;;;;;;;15.82;7.47;;;;;;;-145.01;100.00;64805.59;5072354;28;20021;-54
2022/09/21 00:47:35;;;;;;;15.05;7.50;;;;;;;-145.01;100.00;64805.59;5058199;28;20028;-55
2022/09/21 00:50:03;;;;;;;22.73;8.85;;;;;;;-145.01;100.00;64805.59;5037211;28;20029;-55
2022/09/21 00:52:31;;;;;;;22.45;9.05;;;;;;;-145.01;100.00;64805.59;5052179;28;20067;-55
2022/09/21 00:54:59;;;;;;;18.85;9.10;;;;;;;-145.01;100.00;64805.59;5040579;28;20024;-56
2022/09/21 00:57:25;;;;;;;26.15;8.95;;;;;;;-145.01;100.00;64805.59;5065889;28;20028;-55
2022/09/21 00:59:51;;;;;;;20.90;9.52;;;;;;;-145.01;100.00;64805.59;5032477;28;20146;-55
2022/09/21 01:02:17;;;;;;;19.33;9.65;;;;;;;-145.01;100.00;64805.59;5048510;28;20637;-55
2022/09/21 01:04:43;;;;;;;27.40;10.27;;;;;;;-145.01;100.00;64805.59;5049398;28;20052;-55
2022/09/21 01:07:11;;;;;;;22.45;9.60;;;;;;;-145.01;100.00;64805.59;5082196;28;20442;-55
2022/09/21 01:09:36;;;;;;;21.90;10.02;;;;;;;-145.01;100.00;64805.59;5051054;28;20021;-55
2022/09/21 01:12:14;;;;;;;22.42;10.00;;;;;;;-145.01;100.00;64805.59;5059714;28;20047;-53
2022/09/21 01:14:56;;;;;;;23.08;9.55;;;;;;;-145.01;100.00;64805.59;5055577;28;20043;-54
2022/09/21 01:17:42;;;;;;;17.80;8.15;;;;;;;-145.01;100.00;64805.59;5056640;28;20016;-54
2022/09/21 01:20:44;;;;;;;20.55;8.77;;;;;;;-145.01;100.00;64805.59;5047788;28;20025;-54
2022/09/21 01:23:41;;;;;;;17.10;8.43;;;;;;;-145.01;100.00;64805.59;5049805;28;20083;-53
2022/09/21 01:26:19;;;;;;;19.02;8.80;;;;;;;-145.01;100.00;64805.59;5033098;28;20037;-53
2022/09/21 01:28:56;;;;;;;20.15;10.07;;;;;;;-145.01;100.00;64805.59;5053953;28;20028;-53
2022/09/21 01:31:25;;;;;;;17.95;8.77;;;;;;;-145.01;100.00;64805.59;5054046;28;20095;-55
2022/09/21 01:33:53;;;;;;;17.70;8.20;;;;;;;-145.01;100.00;64805.59;5053815;28;20025;-54
2022/09/21 01:36:23;;;;;;;20.33;9.80;;;;;;;-145.01;100.00;64805.59;5054855;28;20043;-53
2022/09/21 01:38:49;;;;;;;;;;;;;;;-145.01;100.00;64805.59;5048531;28;20032;-54
2022/09/21 01:41:17;;;;;;;19.98;9.90;;;;;;;-145.01;100.00;64805.59;5087370;28;20342;-54
2022/09/21 01:43:46;;;;;;;21.23;10.60;;;;;;;-145.01;100.00;64805.59;5035844;28;20025;-54
2022/09/21 01:46:14;;;;;;;23.20;10.35;;;;;;;-145.01;100.00;64805.59;5054876;28;20037;-54
2022/09/21 01:48:43;;;;;;;22.48;10.20;;;;;;;-145.01;100.00;64805.59;5051778;28;20162;-52
2022/09/21 01:51:10;;;;;;;24.67;10.75;;;;;;;-145.01;100.00;64805.59;5049769;28;20433;-54
2022/09/21 01:53:43;;;;;;;24.27;10.35;;;;;;;-145.01;100.00;64805.59;5064780;28;20030;-54
2022/09/21 01:56:14;;;;;;;26.60;9.98;;;;;;;-145.01;100.00;64805.59;5050143;28;20041;-53
2022/09/21 01:59:07;;;;;;;22.73;9.27;;;;;;;-145.01;100.00;64805.59;5052443;28;20382;-54
2022/09/21 02:01:36;;;;;;;25.08;8.73;;;;;;;-145.01;100.00;64805.59;5034161;28;20237;-54
2022/09/21 02:04:04;;;;;;;16.77;9.00;;;;;;;-145.01;100.00;64805.59;5047031;28;20059;-55
2022/09/21 02:06:29;;;;;;;17.92;9.65;;;;;;;-145.01;100.00;64805.59;5032824;28;20043;-54
2022/09/21 02:08:55;;;;;;;20.25;10.52;;;;;;;-145.01;100.00;64805.59;5036239;28;20025;-54
2022/09/21 02:11:21;;;;;;;24.08;11.73;;;;;;;-145.01;100.00;64805.59;5055177;28;20036;-53
2022/09/21 02:13:47;;;;;;;28.27;13.90;;;;;;;-145.01;100.00;64805.59;5051861;28;20506;-54
2022/09/21 02:16:35;;;;;;;23.55;11.80;;;;;;;-145.01;100.00;64805.59;5053462;28;20028;-54
2022/09/21 02:19:10;;;;;;;20.48;11.15;;;;;;;-145.01;100.00;64805.59;5039357;28;20321;-54
2022/09/21 02:21:56;;;;;;;16.02;7.72;;;;;;;-145.01;100.00;64805.59;5051040;28;20043;-53
2022/09/21 02:25:14;;;;;;;14.77;8.18;;;;;;;-145.01;100.00;64805.59;5048016;28;20029;-54
2022/09/21 02:27:50;;;;;;;16.67;9.02;;;;;;;-145.01;100.00;64805.59;5012687;28;20051;-55
2022/09/21 02:30:18;;;;;;;17.40;7.80;;;;;;;-145.01;100.00;64805.59;5050283;28;20040;-54
2022/09/21 02:32:51;;;;;;;24.02;8.52;;;;;;;-145.01;100.00;64805.59;5049302;28;20440;-53
2022/09/21 02:35:49;;;;;;;21.17;9.43;;;;;;;-145.01;100.00;64805.59;5052682;28;20160;-53
2022/09/21 02:38:40;;;;;;;169.45;12.95;;;;;;;-145.01;100.00;64805.59;5055022;28;20025;-54
2022/09/21 02:41:18;;;;;;;;;;;;;;;-145.01;100.00;64805.59;5048634;28;20040;-54
2022/09/21 02:43:44;;;;;;;43.17;14.05;;;;;;;-145.01;100.00;64805.59;5047995;28;19920;-54
2022/09/21 02:46:13;;;;;;;79.65;16.63;;;;;;;-145.01;100.00;64805.59;5048049;28;20598;-54
2022/09/21 02:49:13;;;;;;;124.82;19.40;;;;;;;-145.01;100.00;64805.59;5045710;28;20083;-53
2022/09/21 02:51:46;;;;;;;213.68;19.40;;;;;;;-145.01;100.00;64805.59;5037257;28;20037;-53
2022/09/21 02:54:12;;;;;;;136.65;16.90;;;;;;;-145.01;100.00;64805.59;5066652;28;20037;-52
2022/09/21 02:56:38;;;;;;;115.43;17.00;;;;;;;-145.01;100.00;64805.59;5039779;28;20037;-54
2022/09/21 02:59:04;;;;;;;93.78;16.50;;;;;;;-145.01;100.00;64805.59;5040743;28;20734;-54
2022/09/21 03:01:29;;;;;;;159.88;16.92;;;;;;;-145.01;100.00;64805.59;5038254;28;20027;-55
2022/09/21 03:03:55;;;;;;;101.70;16.42;;;;;;;-145.01;100.00;64805.59;5070431;28;20056;-54
2022/09/21 03:06:20;;;;;;;56.88;13.88;;;;;;;-145.01;100.00;64805.59;5050723;28;20021;-54
2022/09/21 03:08:46;;;;;;;54.95;12.60;;;;;;;-145.01;100.00;64805.59;5050355;28;20523;-55
2022/09/21 03:11:15;;;;;;;175.77;12.93;;;;;;;-145.01;100.00;64805.59;5056564;28;20043;-55
2022/09/21 03:13:41;;;;;;;109.95;12.80;;;;;;;-145.01;100.00;64805.59;5058984;28;20428;-54
2022/09/21 03:16:07;;;;;;;213.77;16.30;;;;;;;-145.01;100.00;64805.59;5088073;28;20028;-54
2022/09/21 03:18:32;;;;;;;199.68;15.18;;;;;;;-145.01;100.00;64805.59;5057317;28;20477;-54
2022/09/21 03:20:58;;;;;;;181.85;16.63;;;;;;;-145.01;100.00;64805.59;5056369;28;20025;-54
2022/09/21 03:23:23;;;;;;;140.18;12.93;;;;;;;-145.01;100.00;64805.59;5050829;28;20393;-52
2022/09/21 03:25:49;;;;;;;144.90;12.77;;;;;;;-145.01;100.00;64805.59;5052537;28;21352;-54
2022/09/21 03:28:14;;;;;;;184.85;11.77;;;;;;;-145.01;100.00;64805.59;5050569;28;20037;-54
2022/09/21 03:30:40;;;;;;;92.60;10.77;;;;;;;-145.01;100.00;64805.59;5058261;28;20024;-54
2022/09/21 03:33:05;;;;;;;123.97;12.15;;;;;;;-145.01;100.00;64805.59;5052429;28;20454;-54
2022/09/21 03:35:32;;;;;;;49.00;13.73;;;;;;;-145.01;100.00;64805.59;5052170;28;20090;-52
2022/09/21 03:37:58;;;;;;;52.65;13.15;;;;;;;-145.01;100.00;64805.59;5051228;28;20029;-58
2022/09/21 03:40:26;;;;;;;92.45;14.75;;;;;;;-145.01;100.00;64805.59;5047949;28;20036;-54
2022/09/21 03:42:51;;;;;;;100.18;13.10;;;;;;;-145.01;100.00;64805.59;5055342;28;20025;-52
2022/09/21 03:45:17;;;;;;;110.38;14.77;;;;;;;-145.01;100.00;64805.59;5053217;28;20089;-54
2022/09/21 03:47:42;;;;;;;62.55;12.93;;;;;;;-145.01;100.00;64805.59;5056999;28;20517;-55
2022/09/21 03:50:08;;;;;;;91.75;13.57;;;;;;;-145.01;100.00;64805.59;5049883;28;20021;-55
2022/09/21 03:52:35;;;;;;;82.25;12.90;;;;;;;-145.01;100.00;64805.59;5049811;28;20060;-54
2022/09/21 03:55:03;;;;;;;53.08;12.68;;;;;;;-145.01;100.00;64805.59;5062455;28;20094;-54
2022/09/21 03:57:29;;;;;;;33.63;11.30;;;;;;;-145.01;100.00;64805.59;5050391;28;20039;-56
2022/09/21 03:59:54;;;;;;;87.38;10.82;;;;;;;-145.01;100.00;64805.59;5052357;28;20037;-56
2022/09/21 04:02:21;;;;;;;79.63;13.25;;;;;;;-145.01;100.00;64805.59;5055944;28;20036;-55
2022/09/21 04:04:49;;;;;;;60.10;12.75;;;;;;;-145.01;100.00;64805.59;5054313;28;20400;-55
2022/09/21 04:07:15;;;;;;;96.57;12.77;;;;;;;-145.01;100.00;64805.59;5055086;28;20639;-54
2022/09/21 04:09:40;;;;;;;70.00;11.50;;;;;;;-145.01;100.00;64805.59;5049566;28;20029;-55
2022/09/21 04:12:06;;;;;;;56.60;11.23;;;;;;;-145.01;100.00;64805.59;5051481;28;20095;-55
2022/09/21 04:14:32;;;;;;;85.35;12.32;;;;;;;-145.01;100.00;64805.59;5048980;28;20017;-54
2022/09/21 04:16:57;;;;;;;57.88;11.02;;;;;;;-145.01;100.00;64805.59;5056011;28;20044;-55
2022/09/21 04:19:22;;;;;;;28.95;10.48;;;;;;;-145.01;100.00;64805.59;5052539;28;20048;-55
2022/09/21 04:21:51;;;;;;;36.90;10.25;;;;;;;-145.01;100.00;64805.59;5054249;28;20016;-55
2022/09/21 04:24:18;;;;;;;47.72;11.52;;;;;;;-145.01;100.00;64805.59;5056500;28;20032;-58
2022/09/21 04:26:44;;;;;;;99.13;11.23;;;;;;;-145.01;100.00;64805.59;5048873;28;20016;-55
2022/09/21 04:29:09;;;;;;;49.10;10.40;;;;;;;-145.01;100.00;64805.59;5049415;28;20028;-55
2022/09/21 04:31:35;;;;;;;27.25;9.50;;;;;;;-145.01;100.00;64805.59;5065604;28;20033;-54
2022/09/21 04:34:00;;;;;;;75.75;9.35;;;;;;;-145.01;100.00;64805.59;5047611;28;20510;-55
2022/09/21 04:36:27;;;;;;;30.90;9.10;;;;;;;-145.01;100.00;64805.59;5049771;28;20059;-55
2022/09/21 04:38:52;;;;;;;38.65;9.07;;;;;;;-145.01;100.00;64805.59;5048571;28;20143;-56
2022/09/21 04:41:18;;;;;;;42.90;8.85;;;;;;;-145.01;100.00;64805.59;5053731;28;20058;-54
2022/09/21 04:43:44;;;;;;;30.50;9.63;;;;;;;-145.01;100.00;64805.59;5055079;28;20029;-54
2022/09/21 04:46:11;;;;;;;83.65;9.25;;;;;;;-145.01;100.00;64805.59;5054606;28;20041;-55
2022/09/21 04:48:37;;;;;;;29.63;7.88;;;;;;;-145.01;100.00;64805.59;5056851;28;20021;-54
2022/09/21 04:51:02;;;;;;;45.50;8.85;;;;;;;-145.01;100.00;64805.59;5054193;28;20055;-55
2022/09/21 04:53:28;;;;;;;35.05;8.60;;;;;;;-145.01;100.00;64805.59;5050079;28;20383;-53
2022/09/21 04:55:54;;;;;;;28.73;8.90;;;;;;;-145.01;100.00;64805.59;5054765;28;20025;-56
2022/09/21 04:58:20;;;;;;;27.95;8.25;;;;;;;-145.01;100.00;64805.59;5056635;28;20041;-54
2022/09/21 05:00:49;;;;;;;26.02;7.63;;;;;;;-145.01;100.00;64805.59;5057054;28;20047;-54
2022/09/21 05:03:15;;;;;;;48.55;8.27;;;;;;;-145.01;100.00;64805.59;5057911;28;20036;-54
2022/09/21 05:05:51;;;;;;;30.50;8.40;;;;;;;-145.01;100.00;64805.59;5059226;28;20029;-55
2022/09/21 05:10:01;;;;;;;29.25;7.07;;;;;;;-145.01;100.00;64805.59;5050301;28;20029;-53
2022/09/21 05:11:03;;;;;;;47.35;8.23;;;;;;;-145.01;100.00;64805.59;5050722;28;20033;-52
2022/09/21 05:13:29;;;;;;;99.55;7.55;;;;;;;-145.01;100.00;64805.59;5055387;28;20319;-55
2022/09/21 05:15:54;;;;;;;47.45;7.57;;;;;;;-145.01;100.00;64805.59;5051490;28;20025;-55
2022/09/21 05:18:19;;;;;;;32.28;7.45;;;;;;;-145.01;100.00;64805.59;5061354;28;20029;-55
2022/09/21 05:20:52;;;;;;;37.05;7.75;;;;;;;-145.01;100.00;64805.59;5050110;28;20029;-54
2022/09/21 05:23:17;;;;;;;45.58;8.55;;;;;;;-145.01;100.00;64805.59;5056374;28;20101;-52
2022/09/21 05:25:42;;;;;;;47.70;8.43;;;;;;;-145.01;100.00;64805.59;5061923;28;21825;-55
2022/09/21 05:28:08;;;;;;;47.88;8.38;;;;;;;-145.01;100.00;64805.59;5062471;28;20479;-54
2022/09/21 05:30:34;;;;;;;86.72;9.95;;;;;;;-145.01;100.00;64805.59;5061952;28;20024;-53
2022/09/21 05:33:02;;;;;;;43.90;9.35;;;;;;;-145.01;100.00;64805.59;5064242;28;20512;-54
2022/09/21 05:35:35;;;;;;;83.00;9.80;;;;;;;-145.01;100.00;64805.59;5060251;28;20036;-54
2022/09/21 05:38:03;;;;;;;48.83;8.55;;;;;;;-145.01;100.00;64805.59;5052089;28;20128;-54
2022/09/21 05:40:29;;;;;;;58.38;8.68;;;;;;;-145.01;100.00;64805.59;5048758;28;20074;-55
2022/09/21 05:42:55;;;;;;;46.10;8.75;;;;;;;-145.01;100.00;64805.59;5055234;28;20236;-55
2022/09/21 05:45:21;;;;;;;47.83;8.52;;;;;;;-145.01;100.00;64805.59;5061023;28;20038;-54
2022/09/21 05:47:50;;;;;;;47.58;8.50;;;;;;;-145.01;100.00;64805.59;5052323;28;20017;-54
2022/09/21 05:50:18;;;;;;;60.58;8.50;;;;;;;-145.01;100.00;64805.59;5055364;28;20051;-54
2022/09/21 05:52:56;;;;;;;53.13;8.90;;;;;;;-145.01;100.00;64805.59;5048298;28;20475;-54
2022/09/21 05:55:44;;;;;;;44.88;8.63;;;;;;;-145.01;100.00;64805.59;5032218;28;20045;-54
2022/09/21 05:58:22;;;;;;;73.85;8.32;;;;;;;-145.01;100.00;64805.59;5051206;28;20487;-50
2022/09/21 06:01:07;;;;;;;78.05;8.23;;;;;;;-145.01;100.00;64805.59;5053414;28;20486;-53
2022/09/21 06:03:35;;;;;;;42.58;8.10;;;;;;;-145.01;100.00;64805.59;5047235;28;20044;-53
2022/09/21 06:06:00;;;;;;;102.00;9.90;;;;;;;-145.01;100.00;64805.59;5073445;28;20040;-54
2022/09/21 06:08:26;;;;;;;85.38;9.80;;;;;;;-145.01;100.00;64805.59;5048478;28;20033;-53
2022/09/21 06:10:51;;;;;;;66.03;8.73;;;;;;;-145.01;100.00;64805.59;5053613;28;20077;-53
2022/09/21 06:13:17;;;;;;;45.38;7.82;;;;;;;-145.01;100.00;64805.59;5034125;28;20036;-54
2022/09/21 06:15:42;;;;;;;49.00;9.38;;;;;;;-145.01;100.00;64805.59;5053898;28;20449;-53
2022/09/21 06:18:08;;;;;;;56.17;8.85;;;;;;;-145.01;100.00;64805.59;5054245;28;20029;-54
2022/09/21 06:20:33;;;;;;;53.47;9.00;;;;;;;-145.01;100.00;64805.59;5053338;28;20036;-53
2022/09/21 06:23:10;;;;;;;33.90;9.05;;;;;;;-145.01;100.00;64805.59;5053751;28;20511;-54
2022/09/21 06:25:36;;;;;;;59.22;9.00;;;;;;;-145.01;100.00;64805.59;5054758;28;20032;-57
2022/09/21 06:28:05;;;;;;;32.78;8.90;;;;;;;-145.01;100.00;64805.59;5054292;28;20025;-54
2022/09/21 06:30:34;;;;;;;57.30;8.85;;;;;;;-145.01;100.00;64805.59;5054255;28;20024;-51
2022/09/21 06:33:00;;;;;;;34.00;8.85;;;;;;;-145.01;100.00;64805.59;5050738;28;20057;-54
2022/09/21 06:35:29;;;;;;;33.75;9.65;;;;;;;-145.01;100.00;64805.59;5080551;28;20025;-53
2022/09/21 06:38:01;;;;;;;78.25;9.38;;;;;;;-145.01;100.00;64805.59;5053752;28;20017;-55
2022/09/21 06:40:27;;;;;;;55.42;8.05;;;;;;;-145.01;100.00;64805.59;5048719;28;20025;-54
2022/09/21 06:42:59;;;;;;;60.92;10.32;;;;;;;-145.01;100.00;64805.59;5055780;28;20286;-54
2022/09/21 06:45:25;;;;;;;46.03;8.90;;;;;;;-145.01;100.00;64805.59;5049069;28;20017;-54
2022/09/21 06:47:51;;;;;;;43.38;9.05;;;;;;;-145.01;100.00;64805.59;5049066;28;20104;-53
2022/09/21 06:50:16;;;;;;;46.63;8.88;;;;;;;-145.01;100.00;64805.59;5048227;28;20040;-55
2022/09/21 06:52:41;;;;;;;27.88;9.07;;;;;;;-145.01;100.00;64805.59;5048484;28;20044;-54
2022/09/21 06:55:08;;;;;;;76.38;9.07;;;;;;;-145.01;100.00;64805.59;5057830;28;20020;-52
2022/09/21 06:57:34;;;;;;;80.00;8.82;;;;;;;-145.01;100.00;64805.59;5052071;28;20451;-54
2022/09/21 06:59:59;;;;;;;67.25;9.50;;;;;;;-145.01;100.00;64805.59;5087385;28;20025;-53
2022/09/21 07:02:25;;;;;;;49.65;8.93;;;;;;;-145.01;100.00;64805.59;5056433;28;20271;-53
2022/09/21 07:04:50;;;;;;;39.90;8.38;;;;;;;-145.01;100.00;64805.59;5046360;28;20045;-53
2022/09/21 07:07:16;;;;;;;46.70;9.98;;;;;;;-145.01;100.00;64805.59;5051919;28;20025;-53
2022/09/21 07:09:41;;;;;;;56.50;10.23;;;;;;;-145.01;100.00;64805.59;5061092;28;20028;-54
2022/09/21 07:12:07;;;;;;;77.20;10.63;;;;;;;-145.01;100.00;64805.59;5052926;28;20021;-54
2022/09/21 07:14:32;;;;;;;53.45;9.93;;;;;;;-145.01;100.00;64805.59;5063857;28;20390;-53
2022/09/21 07:16:58;;;;;;;45.22;9.70;;;;;;;-145.01;100.00;64805.59;5049194;28;20074;-54
2022/09/21 07:19:24;;;;;;;45.30;9.07;;;;;;;-145.01;100.00;64805.59;5048034;28;20475;-54
2022/09/21 07:21:51;;;;;;;70.28;9.90;;;;;;;-145.01;100.00;64805.59;5054244;28;20224;-54
2022/09/21 07:24:17;;;;;;;38.47;9.57;;;;;;;-145.01;100.00;64805.59;5058796;28;20028;-54
2022/09/21 07:26:42;;;;;;;34.47;9.57;;;;;;;-145.01;100.00;64805.59;5050800;28;20025;-54
2022/09/21 07:29:08;;;;;;;66.32;9.95;;;;;;;-145.01;100.00;64805.59;5052626;28;20021;-54
2022/09/21 07:31:33;;;;;;;52.78;8.77;;;;;;;-145.01;100.00;64805.59;5048454;28;20285;-54
2022/09/21 07:33:59;;;;;;;53.67;9.15;;;;;;;-145.01;100.00;64805.59;5048036;28;20079;-54
2022/09/21 07:36:24;;;;;;;59.85;10.00;;;;;;;-145.01;100.00;64805.59;5052147;28;20029;-57
2022/09/21 07:38:50;;;;;;;41.83;9.80;;;;;;;-145.01;100.00;64805.59;5032725;28;20037;-54
2022/09/21 07:41:15;;;;;;;49.72;11.00;;;;;;;-145.01;100.00;64805.59;5056734;28;20025;-54
2022/09/21 07:43:41;;;;;;;63.45;10.18;;;;;;;-145.01;100.00;64805.59;5063301;28;20050;-54
2022/09/21 07:46:08;;;;;;;64.38;10.73;;;;;;;-145.01;100.00;64805.59;5055767;28;20148;-54
2022/09/21 07:48:33;;;;;;;75.65;9.75;;;;;;;-145.01;100.00;64805.59;5058892;28;20032;-53
2022/09/21 07:51:05;;;;;;;37.80;10.18;;;;;;;-145.01;100.00;64805.59;5051987;28;20021;-55
2022/09/21 07:53:34;;;;;;;41.03;10.90;;;;;;;-145.01;100.00;64805.59;5058228;28;20296;-52
2022/09/21 07:56:04;;;;;;;52.65;9.30;;;;;;;-145.01;100.00;64805.59;5063352;28;20103;-54
2022/09/21 08:01:14;;;;;;;26.77;8.85;;;;;;;-145.01;100.00;64805.59;5059023;28;20391;-54
2022/09/21 08:03:39;;;;;;;35.70;9.85;;;;;;;-145.01;100.00;64805.59;5053038;28;20039;-55
2022/09/21 08:06:06;;;;;;;28.60;10.18;;;;;;;-145.01;100.00;64805.59;5059063;28;20037;-55
2022/09/21 08:08:31;;;;;;;25.42;9.85;;;;;;;-145.01;100.00;64805.59;5054407;28;20081;-54
2022/09/21 08:11:02;;;;;;;30.73;9.05;;;;;;;-145.01;100.00;64805.59;5053831;28;20021;-54
2022/09/21 08:13:27;;;;;;;21.88;9.48;;;;;;;-145.01;100.00;64805.59;5052269;28;20131;-55
2022/09/21 08:15:59;;;;;;;40.15;9.95;;;;;;;-145.01;100.00;64805.59;5058208;28;20035;-54
2022/09/21 08:18:25;;;;;;;26.65;9.38;;;;;;;-145.01;100.00;64805.59;5058339;28;20040;-54
2022/09/21 08:21:09;;;;;;;28.17;10.13;;;;;;;-145.01;100.00;64805.59;5056559;28;20048;-54
2022/09/21 08:23:39;;;;;;;41.08;10.82;;;;;;;-145.01;100.00;64805.59;5059371;28;20029;-55
2022/09/21 08:26:06;;;;;;;22.60;10.90;;;;;;;-145.01;100.00;64805.59;5051654;28;20035;-54
2022/09/21 08:28:32;;;;;;;22.23;10.73;;;;;;;-145.01;100.00;64805.59;5055506;28;20167;-54
2022/09/21 08:31:01;;;;;;;22.55;10.82;;;;;;;-145.01;100.00;64805.59;5059841;28;20108;-55
2022/09/21 08:33:27;;;;;;;29.52;10.43;;;;;;;-145.01;100.00;64805.59;5054605;28;20055;-55
2022/09/21 08:35:53;;;;;;;42.42;10.82;;;;;;;-145.01;100.00;64805.59;5055683;28;20025;-55
2022/09/21 08:38:19;;;;;;;29.88;12.38;;;;;;;-145.01;100.00;64805.59;5054213;28;20017;-54
2022/09/21 08:40:44;;;;;;;26.95;11.30;;;;;;;-145.01;100.00;64805.59;5049889;28;20060;-56
2022/09/21 08:43:14;;;;;;;25.23;10.65;;;;;;;-145.01;100.00;64805.59;5041468;28;20646;-56
2022/09/21 08:45:41;;;;;;;19.83;10.35;;;;;;;-145.01;100.00;64805.59;5036215;28;20017;-57
2022/09/21 08:48:14;;;;;;;21.45;11.18;;;;;;;-145.01;100.00;64805.59;5058695;28;20037;-55
2022/09/21 08:50:52;;;;;;;19.10;10.25;;;;;;;-145.01;100.00;64805.59;5053392;28;20098;-56
2022/09/21 08:53:30;;;;;;;19.00;10.10;;;;;;;-145.01;100.00;64805.59;5060167;28;20037;-56
2022/09/21 08:55:56;;;;;;;24.98;10.45;;;;;;;-145.01;100.00;64805.59;5049544;28;20376;-53
2022/09/21 08:58:26;;;;;;;24.55;10.05;;;;;;;-145.01;100.00;64805.59;5049533;28;20058;-56
2022/09/21 09:01:05;;;;;;;18.73;10.40;;;;;;;-145.01;100.00;64805.59;5083150;28;20043;-54
2022/09/21 09:03:55;;;;;;;20.73;11.63;;;;;;;-145.01;100.00;64805.59;5046578;28;20031;-54
2022/09/21 09:06:30;;;;;;;25.60;11.68;;;;;;;-145.01;100.00;64805.59;5053711;28;20037;-54
2022/09/21 09:09:18;;;;;;;21.17;11.95;;;;;;;-145.01;100.00;64805.59;5048945;28;20406;-54
2022/09/21 09:12:01;;;;;;;22.15;11.18;;;;;;;-145.01;100.00;64805.59;5050847;28;20033;-56
2022/09/21 09:14:42;;;;;;;19.85;10.95;;;;;;;-145.01;100.00;64805.59;5056370;28;20040;-56
2022/09/21 09:17:16;;;;;;;;;;;;;;;-145.01;100.00;64805.59;5057075;28;20029;-54
2022/09/21 09:19:49;;;;;;;19.48;10.98;;;;;;;-145.01;100.00;64805.59;5058121;28;20304;-54
2022/09/21 09:22:17;;;;;;;20.60;10.60;;;;;;;-145.01;100.00;64805.59;5050276;28;20099;-54
2022/09/21 09:24:49;;;;;;;20.25;11.75;;;;;;;-145.01;100.00;64805.59;5054364;28;20036;-53
2022/09/21 09:27:35;;;;;;;20.60;11.57;;;;;;;-145.01;100.00;64805.59;5056602;28;20029;-56
2022/09/21 09:30:20;;;;;;;14.63;10.38;;;;;;;-145.01;100.00;64805.59;5052460;28;20434;-56
2022/09/21 09:32:59;;;;;;;17.88;10.85;;;;;;;-145.01;100.00;64805.59;5054506;28;20053;-56
2022/09/21 09:35:33;;;;;;;16.30;10.10;;;;;;;-145.01;100.00;64805.59;5061306;28;20034;-55
2022/09/21 09:38:40;;;;;;;18.75;10.13;;;;;;;-145.01;100.00;64805.59;5055547;28;20468;-55
2022/09/21 09:41:12;;;;;;;23.77;10.57;;;;;;;-145.01;100.00;64805.59;5053794;28;20021;-55
2022/09/21 09:43:52;;;;;;;21.05;10.18;;;;;;;-145.01;100.00;64805.59;5056155;28;20045;-55
2022/09/21 09:46:38;;;;;;;18.90;10.38;;;;;;;-145.01;100.00;64805.59;5050277;28;20158;-56
2022/09/21 09:49:31;;;;;;;22.17;11.85;;;;;;;-145.01;100.00;64805.59;5052585;28;20506;-54
2022/09/21 09:51:56;;;;;;;14.80;9.25;;;;;;;-145.01;100.00;64805.59;5053416;28;20032;-56
2022/09/21 09:54:23;;;;;;;15.93;9.70;;;;;;;-145.01;100.00;64805.59;5052748;28;20032;-55
2022/09/21 09:56:48;;;;;;;16.00;9.35;;;;;;;-145.01;100.00;64805.59;5053344;28;20048;-55
2022/09/21 09:59:23;;;;;;;17.08;9.35;;;;;;;-145.01;100.00;64805.59;5052879;28;20361;-55
2022/09/21 10:02:02;;;;;;;17.25;9.02;;;;;;;-145.01;100.00;64805.59;5054732;28;20477;-58
2022/09/21 10:04:27;;;;;;;18.08;9.82;;;;;;;-145.01;100.00;64805.59;5054398;28;20041;-54
2022/09/21 10:06:53;;;;;;;20.55;9.80;;;;;;;-145.01;100.00;64805.59;5055481;28;20282;-55
2022/09/21 10:09:31;;;;;;;19.13;10.25;;;;;;;-145.01;100.00;64805.59;5055055;28;20293;-55
2022/09/21 10:12:23;;;;;;;16.20;9.27;;;;;;;-145.01;100.00;64805.59;5048863;28;20021;-56
2022/09/21 10:14:50;;;;;;;17.50;9.90;;;;;;;-145.01;100.00;64805.59;5086659;28;20029;-55
2022/09/21 10:17:16;;;;;;;17.38;9.63;;;;;;;-145.01;100.00;64805.59;5053623;28;20047;-56
2022/09/21 10:19:41;;;;;;;19.80;10.63;;;;;;;-145.01;100.00;64805.59;5052951;28;20464;-57
2022/09/21 10:22:15;;;;;;;18.60;10.02;;;;;;;-145.01;100.00;64805.59;5051384;28;20017;-56
2022/09/21 10:24:44;;;;;;;20.15;9.73;;;;;;;-145.01;100.00;64805.59;5072169;28;20074;-56
2022/09/21 10:27:10;;;;;;;16.98;10.35;;;;;;;-145.01;100.00;64805.59;5050561;28;20032;-57
2022/09/21 10:29:40;;;;;;;16.73;10.10;;;;;;;-145.01;100.00;64805.59;5063368;28;20033;-55
2022/09/21 10:32:06;;;;;;;22.55;10.18;;;;;;;-145.01;100.00;64805.59;5054881;28;20567;-56
2022/09/21 10:34:33;;;;;;;21.58;10.13;;;;;;;-145.01;100.00;64805.59;5048885;28;20480;-57
2022/09/21 10:37:00;;;;;;;17.98;9.57;;;;;;;-145.01;100.00;64805.59;5047476;28;20075;-55
2022/09/21 10:39:29;;;;;;;20.20;9.85;;;;;;;-145.01;100.00;64805.59;5052907;28;20087;-56
2022/09/21 10:42:02;;;;;;;21.08;10.23;;;;;;;-145.01;100.00;64805.59;5049308;28;20075;-56
2022/09/21 10:44:41;;;;;;;19.73;9.32;;;;;;;-145.01;100.00;64805.59;5050639;28;20025;-56
2022/09/21 10:47:17;;;;;;;14.25;9.02;;;;;;;-145.01;100.00;64805.59;5049095;28;20038;-56
2022/09/21 10:49:50;;;;;;;23.58;9.63;;;;;;;-145.01;100.00;64805.59;5048620;28;20029;-55
2022/09/21 10:52:18;;;;;;;16.88;9.32;;;;;;;-145.01;100.00;64805.59;5053256;28;20047;-56
2022/09/21 10:54:44;;;;;;;20.08;9.55;;;;;;;-145.01;100.00;64805.59;5053268;28;20577;-56
2022/09/21 10:57:14;;;;;;;19.73;9.57;;;;;;;-145.01;100.00;64805.59;5080883;28;20024;-56
2022/09/21 10:59:39;;;;;;;18.17;9.68;;;;;;;-145.01;100.00;64805.59;5055309;28;20195;-56
2022/09/21 11:02:30;;;;;;;16.40;8.95;;;;;;;-145.01;100.00;64805.59;5050283;28;20021;-56
2022/09/21 11:05:16;;;;;;;19.95;9.07;;;;;;;-145.01;100.00;64805.59;5053430;28;20041;-56
2022/09/21 11:08:00;;;;;;;21.30;9.63;;;;;;;-145.01;100.00;64805.59;5042864;28;20028;-55
2022/09/21 11:11:00;;;;;;;15.80;8.63;;;;;;;-145.01;100.00;64805.59;5054242;28;20033;-57
2022/09/21 11:13:42;;;;;;;22.48;8.48;;;;;;;-145.01;100.00;64805.59;5050082;28;20025;-55
2022/09/21 11:16:17;;;;;;;19.00;8.77;;;;;;;-145.01;100.00;64805.59;5052907;28;20063;-57